Terminal Aerodrome Forecast
Issued by NWS

Current Version | Previous Version | Graphics & Text | Print | Product List | Glossary On
Versions: 1 2 3 4 5 6 7 8 9 10 11 12 13 14 15 16 17 18 19 20 21 22 23 24
000
FTUS41 KRLX 120500
TAFCKB
TAF
KCKB 120527Z 1206/1306 00000KT P6SM SCT012 OVC022
     FM120900 02003KT 6SM BR BKN012
     FM121600 03004KT P6SM BKN015
     FM121700 02005KT P6SM BKN025
     FM122000 01005KT P6SM SCT030
     FM130000 01004KT P6SM BKN025=

USA.gov is the U.S. government's official web portal to all federal, state and local government web resources and services.